Time;durP1;ratioP1;P1;durP2;ratioP2;P2;SDS_P1;SDS_P2;PMS_P1;PMS_P2;Temp;Humidity;BMP_temperature;BMP_pressure;BME280_temperature;BME280_humidity;BME280_pressure;Samples;Min_cycle;Max_cycle;Signal;HPM_P1;HPM_P2
2023/04/20 00:01:00;;;;;;;3.13;2.60;;;;;;;8.31;41.92;102139.06;5016427;28;20473;-90
2023/04/20 00:03:26;;;;;;;3.35;2.58;;;;;;;8.43;41.96;102170.59;5025192;28;20385;-90
2023/04/20 00:05:52;;;;;;;3.85;2.80;;;;;;;8.38;40.33;102155.72;5026416;28;20029;-90
2023/04/20 00:08:17;;;;;;;3.90;2.67;;;;;;;8.35;41.34;102168.91;5027697;28;20107;-90
2023/04/20 00:10:44;;;;;;;5.22;2.53;;;;;;;8.33;39.99;102161.00;5005706;28;20025;-90
2023/04/20 00:13:09;;;;;;;3.28;2.80;;;;;;;8.32;42.69;102151.34;5018880;28;20014;-90
2023/04/20 00:15:35;;;;;;;5.30;2.90;;;;;;;8.25;41.95;102138.25;5025365;28;20049;-90
2023/04/20 00:18:00;;;;;;;7.47;2.80;;;;;;;8.30;42.47;102145.25;4998935;28;20126;-89
2023/04/20 00:20:26;;;;;;;6.63;2.70;;;;;;;8.18;42.55;102129.53;5009166;28;20030;-90
2023/04/20 00:22:51;;;;;;;4.72;2.58;;;;;;;8.17;43.06;102115.50;5006158;28;20030;-90
2023/04/20 00:25:17;;;;;;;7.03;4.28;;;;;;;8.16;43.71;102115.53;5027927;28;20431;-90
2023/04/20 00:27:43;;;;;;;3.63;2.40;;;;;;;8.21;41.66;102112.81;5010210;28;20540;-90
2023/04/20 00:30:09;;;;;;;3.75;2.72;;;;;;;8.14;41.04;102115.50;5017749;28;20021;-90
2023/04/20 00:32:35;;;;;;;3.30;2.58;;;;;;;8.19;41.35;102131.28;5011649;28;20033;-90
2023/04/20 00:35:00;;;;;;;5.57;2.53;;;;;;;8.13;41.92;102113.78;5029317;28;20036;-90
2023/04/20 00:37:25;;;;;;;3.65;2.60;;;;;;;8.05;41.92;102096.28;5007885;28;20053;-89
2023/04/20 00:39:51;;;;;;;3.92;2.40;;;;;;;8.06;41.43;102101.53;5002976;28;20033;-90
2023/04/20 00:42:16;;;;;;;3.95;2.38;;;;;;;8.02;40.88;102102.47;5022071;28;20018;-90
2023/04/20 00:44:42;;;;;;;5.05;2.28;;;;;;;7.99;42.24;102097.22;5021051;28;20065;-90
2023/04/20 00:47:07;;;;;;;6.35;2.60;;;;;;;7.95;42.02;102092.88;5020748;28;20029;-90
2023/04/20 00:49:32;;;;;;;4.20;2.83;;;;;;;7.98;41.87;102097.25;5009304;28;20021;-90
2023/04/20 00:51:59;;;;;;;9.57;3.30;;;;;;;7.99;42.95;102099.00;5015785;28;20041;-90
2023/04/20 00:54:27;;;;;;;4.35;2.35;;;;;;;7.86;42.57;102083.31;5022784;28;20500;-90
2023/04/20 00:56:53;;;;;;;3.60;2.47;;;;;;;7.88;41.67;102094.72;5002916;28;20491;-90
2023/04/20 00:59:20;;;;;;;4.18;2.03;;;;;;;7.78;42.45;102068.44;5005005;28;20484;-90
2023/04/20 01:01:45;;;;;;;6.03;2.38;;;;;;;7.88;42.77;102078.91;5021513;28;20469;-89
2023/04/20 01:04:11;;;;;;;5.45;2.40;;;;;;;7.84;42.44;102063.16;5007593;28;20032;-90
2023/04/20 01:06:36;;;;;;;3.53;2.22;;;;;;;7.75;41.98;102056.22;5007619;28;20034;-90
2023/04/20 01:09:01;;;;;;;4.05;2.53;;;;;;;7.81;42.94;102071.94;5008682;28;20029;-90
2023/04/20 01:11:27;;;;;;;2.55;2.10;;;;;;;7.74;42.51;102058.84;5026199;28;20033;-90
2023/04/20 01:13:52;;;;;;;3.72;2.42;;;;;;;7.78;42.54;102064.06;5017839;28;20528;-90
2023/04/20 01:16:17;;;;;;;6.90;2.95;;;;;;;7.76;42.64;102041.28;5007975;28;20162;-90
2023/04/20 01:18:46;;;;;;;6.03;2.22;;;;;;;7.69;41.90;102048.34;5006309;28;20034;-90
2023/04/20 01:21:12;;;;;;;6.50;2.60;;;;;;;7.71;42.19;102045.72;5020506;28;20429;-90
2023/04/20 01:23:38;;;;;;;6.70;2.60;;;;;;;7.58;41.81;102031.78;5007011;28;20489;-90
2023/04/20 01:26:07;;;;;;;5.15;2.50;;;;;;;7.59;43.19;102042.28;5009040;28;20037;-90
2023/04/20 01:28:33;;;;;;;3.80;2.58;;;;;;;7.49;43.07;102026.59;5022945;28;20060;-90
2023/04/20 01:30:58;;;;;;;4.10;2.60;;;;;;;7.50;42.70;102015.19;5010811;28;20037;-89
2023/04/20 01:33:24;;;;;;;6.30;2.45;;;;;;;7.54;42.42;102027.44;5009486;28;20038;-90
2023/04/20 01:35:51;;;;;;;3.83;3.00;;;;;;;7.47;43.17;102024.00;5030183;28;20495;-89
2023/04/20 01:38:21;;;;;;;5.10;2.70;;;;;;;7.52;42.78;102013.44;5022988;28;20026;-90
2023/04/20 01:40:47;;;;;;;5.32;2.80;;;;;;;7.43;42.90;102006.47;5011487;28;20045;-89
2023/04/20 01:43:12;;;;;;;4.05;2.35;;;;;;;7.43;43.79;102011.75;5022890;28;20022;-89
2023/04/20 01:45:37;;;;;;;6.97;2.78;;;;;;;7.41;43.02;102013.50;5009003;28;20044;-89
2023/04/20 01:48:03;;;;;;;6.88;2.80;;;;;;;7.39;43.41;102004.75;5023565;28;20106;-89
2023/04/20 01:50:28;;;;;;;7.03;2.28;;;;;;;7.35;44.82;101996.00;5012493;28;20547;-89
2023/04/20 01:52:53;;;;;;;4.07;2.10;;;;;;;7.40;44.41;101998.59;5015554;28;20044;-89
2023/04/20 01:55:19;;;;;;;6.18;2.42;;;;;;;7.26;42.82;101985.56;5029890;28;20479;-90
2023/04/20 01:57:44;;;;;;;5.53;2.55;;;;;;;7.31;44.43;101990.78;5017024;28;20477;-90
2023/04/20 02:00:10;;;;;;;3.95;2.75;;;;;;;7.36;44.92;102004.78;5026623;28;20454;-89
2023/04/20 02:02:36;;;;;;;2.78;2.33;;;;;;;7.26;44.18;101984.69;5026036;28;20083;-89
2023/04/20 02:05:02;;;;;;;3.70;2.80;;;;;;;7.11;43.99;101983.94;5022243;28;20397;-89
2023/04/20 02:07:27;;;;;;;8.77;2.95;;;;;;;7.08;45.52;101978.69;5012434;28;20362;-89
2023/04/20 02:09:52;;;;;;;4.30;2.20;;;;;;;7.13;46.74;101970.75;5030693;28;20033;-89
2023/04/20 02:12:18;;;;;;;6.82;2.90;;;;;;;6.95;44.82;101963.00;5010875;28;20025;-90
2023/04/20 02:14:43;;;;;;;4.15;2.42;;;;;;;6.97;46.59;101970.00;5029110;28;20107;-89
2023/04/20 02:17:09;;;;;;;4.18;2.80;;;;;;;6.95;46.50;101963.91;4992964;28;20053;-89
2023/04/20 02:19:35;;;;;;;3.08;2.70;;;;;;;6.92;45.71;101960.41;5005989;28;20030;-90
2023/04/20 02:22:00;;;;;;;5.00;2.42;;;;;;;6.85;45.67;101954.31;5005968;28;20109;-89
2023/04/20 02:24:25;;;;;;;5.63;2.20;;;;;;;6.83;46.21;101949.06;5004423;28;20045;-89
2023/04/20 02:26:51;;;;;;;5.43;3.10;;;;;;;6.97;45.94;101951.59;5008540;28;20030;-89
2023/04/20 02:29:16;;;;;;;5.10;2.65;;;;;;;6.90;45.23;101942.00;4988409;28;20026;-90
2023/04/20 02:31:41;;;;;;;5.88;2.85;;;;;;;6.87;45.99;101966.56;5002398;28;20029;-90
2023/04/20 02:34:08;;;;;;;3.55;2.70;;;;;;;6.82;46.28;101964.88;4991384;28;20069;-89
2023/04/20 02:36:34;;;;;;;4.38;2.85;;;;;;;6.64;47.21;101932.56;5006475;28;20519;-89
2023/04/20 02:38:59;;;;;;;3.88;2.80;;;;;;;6.76;46.44;101957.91;5004992;28;20030;-89
2023/04/20 02:41:25;;;;;;;5.97;3.03;;;;;;;6.64;47.27;101943.06;5012406;28;20068;-89
2023/04/20 02:43:50;;;;;;;3.78;2.78;;;;;;;6.46;47.64;101924.78;4996152;28;20015;-89
2023/04/20 02:46:16;;;;;;;5.53;2.80;;;;;;;6.51;47.20;101928.25;4988016;28;20541;-89
2023/04/20 02:48:42;;;;;;;2.63;2.15;;;;;;;6.48;47.86;101932.66;4990110;28;20316;-90
2023/04/20 02:51:07;;;;;;;5.22;2.80;;;;;;;6.43;48.57;101926.56;4993705;28;20014;-89
2023/04/20 02:53:33;;;;;;;6.03;2.80;;;;;;;6.48;49.50;101927.41;4991863;28;20029;-89
2023/04/20 02:55:59;;;;;;;8.48;2.75;;;;;;;6.49;49.26;101921.28;4994546;28;20149;-89
2023/04/20 02:58:24;;;;;;;3.55;3.08;;;;;;;6.59;49.33;101926.47;5008612;28;20491;-90
2023/04/20 03:00:49;;;;;;;5.18;2.63;;;;;;;6.67;49.47;101931.69;5003749;28;20036;-90
2023/04/20 03:03:16;;;;;;;3.33;2.63;;;;;;;6.65;49.99;101926.41;4987813;28;20022;-89
2023/04/20 03:05:42;;;;;;;4.60;2.85;;;;;;;6.70;49.34;101928.16;4989970;28;20389;-90
2023/04/20 03:08:08;;;;;;;3.85;2.67;;;;;;;6.72;49.75;101929.03;5004027;28;20033;-89
2023/04/20 03:10:33;;;;;;;4.63;2.80;;;;;;;6.76;49.10;101912.31;4988761;28;20034;-89
2023/04/20 03:12:58;;;;;;;4.57;2.83;;;;;;;6.83;50.16;101919.28;5005471;28;20022;-90
2023/04/20 03:15:24;;;;;;;5.38;2.85;;;;;;;6.80;50.03;101911.44;5009102;28;20050;-90
2023/04/20 03:17:49;;;;;;;4.57;2.40;;;;;;;6.74;49.82;101899.22;5006739;28;20076;-90
2023/04/20 03:20:15;;;;;;;5.15;2.55;;;;;;;6.74;50.89;101887.81;5012005;28;20032;-90
2023/04/20 03:22:40;;;;;;;5.13;2.72;;;;;;;6.85;50.29;101909.63;5027833;28;20080;-89
2023/04/20 03:25:06;;;;;;;6.20;2.90;;;;;;;6.86;50.71;101896.50;5010596;28;20048;-90
2023/04/20 03:27:32;;;;;;;5.07;2.80;;;;;;;6.92;50.51;101889.44;5011836;28;20029;-90
2023/04/20 03:29:57;;;;;;;4.28;2.65;;;;;;;7.11;50.30;101914.69;5027166;28;20025;-89
2023/04/20 03:32:22;;;;;;;5.88;2.83;;;;;;;7.11;50.63;101891.03;5009823;28;20051;-90
2023/04/20 03:34:47;;;;;;;4.47;2.65;;;;;;;7.22;50.81;101907.56;5027315;28;20079;-90
2023/04/20 03:37:13;;;;;;;5.40;2.75;;;;;;;7.18;50.61;101883.94;5007359;28;20022;-89
2023/04/20 03:39:39;;;;;;;3.65;2.83;;;;;;;7.30;51.00;101889.97;5009669;28;20025;-90
2023/04/20 03:42:05;;;;;;;4.70;2.90;;;;;;;7.23;50.31;101875.16;5020764;28;20104;-90
2023/04/20 03:44:30;;;;;;;3.05;2.75;;;;;;;7.37;50.60;101875.00;4996495;28;20040;-89
2023/04/20 03:46:56;;;;;;;4.35;3.10;;;;;;;7.44;50.58;101867.91;5004533;28;20053;-90
2023/04/20 03:49:23;;;;;;;3.83;2.72;;;;;;;7.51;50.74;101880.13;5007786;28;20033;-89
2023/04/20 03:51:48;;;;;;;4.07;2.75;;;;;;;7.52;51.74;101876.59;5005673;28;20547;-91
2023/04/20 03:54:14;;;;;;;3.88;2.97;;;;;;;7.58;50.77;101874.75;5007212;28;20033;-90
2023/04/20 03:56:39;;;;;;;5.47;2.95;;;;;;;7.56;50.95;101871.28;5027387;28;20037;-90
2023/04/20 03:59:05;;;;;;;6.57;3.10;;;;;;;7.61;51.35;101866.84;5024906;28;20021;-90
2023/04/20 04:01:30;;;;;;;3.95;3.10;;;;;;;7.66;50.91;101885.22;5022952;28;20039;-90
2023/04/20 04:03:56;;;;;;;3.53;2.88;;;;;;;7.68;50.71;101892.19;5007942;28;20117;-90
2023/04/20 04:06:21;;;;;;;5.53;3.20;;;;;;;7.72;51.54;101871.97;5025208;28;20033;-89
2023/04/20 04:08:47;;;;;;;4.35;2.83;;;;;;;7.70;51.71;101862.38;5029067;28;20048;-89
2023/04/20 04:11:12;;;;;;;6.88;2.97;;;;;;;7.83;51.16;101872.72;5011254;28;20037;-89
2023/04/20 04:13:37;;;;;;;5.80;3.15;;;;;;;7.78;50.76;101860.50;5026437;28;20044;-89
2023/04/20 04:16:03;;;;;;;5.40;3.45;;;;;;;7.78;51.69;101865.75;5019574;28;20057;-89
2023/04/20 04:18:31;;;;;;;9.45;3.67;;;;;;;7.89;52.17;101869.16;5021580;28;20114;-89
2023/04/20 04:20:57;;;;;;;6.07;3.50;;;;;;;7.85;52.80;101852.50;5018396;28;20121;-89
2023/04/20 04:23:22;;;;;;;4.43;3.25;;;;;;;7.91;52.14;101851.56;5021875;28;20017;-90
2023/04/20 04:25:47;;;;;;;6.28;3.28;;;;;;;7.96;52.80;101855.00;5026781;28;20396;-90
2023/04/20 04:28:13;;;;;;;6.72;3.50;;;;;;;8.01;52.90;101844.41;5027526;28;20036;-90
2023/04/20 04:30:39;;;;;;;4.20;3.30;;;;;;;8.03;53.76;101840.00;5004589;28;20033;-90
2023/04/20 04:33:05;;;;;;;3.47;3.15;;;;;;;8.05;53.23;101831.16;5021362;28;20037;-90
2023/04/20 04:35:32;;;;;;;8.73;3.33;;;;;;;8.05;53.65;101823.28;5008717;28;20469;-90
2023/04/20 04:37:57;;;;;;;6.25;3.40;;;;;;;8.10;54.42;101829.34;5023914;28;20421;-90
2023/04/20 04:40:22;;;;;;;7.35;4.40;;;;;;;8.13;53.81;101824.03;5009670;28;20026;-90
2023/04/20 04:42:48;;;;;;;6.53;3.50;;;;;;;8.20;53.64;101827.44;5012978;28;20393;-90
2023/04/20 04:45:13;;;;;;;5.57;3.63;;;;;;;8.18;53.54;101808.16;4999643;28;20112;-90
2023/04/20 04:47:41;;;;;;;5.95;3.78;;;;;;;8.21;54.00;101807.22;5018627;28;20109;-89
2023/04/20 04:50:08;;;;;;;6.80;3.85;;;;;;;8.34;53.59;101822.84;5006352;28;20045;-89
2023/04/20 04:52:33;;;;;;;6.90;4.03;;;;;;;8.25;53.35;101795.75;5008151;28;20297;-90
2023/04/20 04:54:59;;;;;;;4.82;3.88;;;;;;;8.43;53.93;101824.50;5018880;28;20025;-90
2023/04/20 04:57:25;;;;;;;7.03;4.00;;;;;;;8.35;53.45;101805.28;5003501;28;20029;-90
2023/04/20 04:59:50;;;;;;;6.38;3.88;;;;;;;8.38;53.74;101803.50;5009573;28;20499;-90
2023/04/20 05:02:16;;;;;;;6.78;3.70;;;;;;;8.45;53.49;101812.19;5023886;28;20025;-90
2023/04/20 05:04:41;;;;;;;7.47;3.88;;;;;;;8.34;53.92;101790.34;5023281;28;20104;-90
2023/04/20 05:07:09;;;;;;;4.60;3.45;;;;;;;8.30;53.24;101793.94;5003336;28;20037;-90
2023/04/20 05:09:34;;;;;;;5.88;3.72;;;;;;;8.38;54.46;101794.72;5008598;28;20107;-90
2023/04/20 05:12:00;;;;;;;5.22;3.70;;;;;;;8.43;53.82;101803.41;5009319;28;20034;-90
2023/04/20 05:14:25;;;;;;;6.50;3.63;;;;;;;8.43;53.56;101792.88;5008184;28;20035;-89
2023/04/20 05:16:51;;;;;;;5.57;3.63;;;;;;;8.43;53.37;101801.66;5004745;28;20054;-90
2023/04/20 05:19:16;;;;;;;5.68;3.45;;;;;;;8.49;53.71;101813.88;5020494;28;20028;-90
2023/04/20 05:21:42;;;;;;;7.60;3.97;;;;;;;8.46;54.36;101800.75;5021678;28;20037;-89
2023/04/20 05:24:07;;;;;;;7.50;3.67;;;;;;;8.44;53.07;101794.66;5006415;28;20025;-90
2023/04/20 05:26:32;;;;;;;9.18;3.67;;;;;;;8.47;53.64;101786.66;5022769;28;20024;-90
2023/04/20 05:28:57;;;;;;;6.47;4.32;;;;;;;8.49;53.87;101789.31;5000495;28;20396;-90
2023/04/20 05:31:23;;;;;;;5.10;3.60;;;;;;;8.55;53.93;101810.28;5020678;28;20041;-90
2023/04/20 05:33:48;;;;;;;7.95;4.25;;;;;;;8.56;53.62;101809.38;5007212;28;20025;-90
2023/04/20 05:36:13;;;;;;;6.30;3.42;;;;;;;8.61;53.68;101808.41;5026460;28;20030;-90
2023/04/20 05:38:39;;;;;;;6.50;3.60;;;;;;;8.61;53.80;101802.25;4998808;28;20108;-89
2023/04/20 05:41:04;;;;;;;4.53;3.60;;;;;;;8.63;54.03;101795.22;5008366;28;20506;-89
2023/04/20 05:43:30;;;;;;;5.78;4.72;;;;;;;8.61;53.73;101797.84;5004462;28;20537;-90
2023/04/20 05:45:55;;;;;;;6.30;3.75;;;;;;;8.61;53.61;101787.31;5024523;28;20100;-90
2023/04/20 05:48:20;;;;;;;4.68;3.85;;;;;;;8.65;53.70;101788.13;5003641;28;20037;-89
2023/04/20 05:50:45;;;;;;;6.15;4.30;;;;;;;8.71;53.70;101801.19;5016668;28;20370;-89
2023/04/20 05:53:11;;;;;;;4.93;3.72;;;;;;;8.71;54.04;101797.69;5025609;28;20098;-89
2023/04/20 05:55:36;;;;;;;6.88;3.95;;;;;;;8.66;53.58;101790.72;5029436;28;20033;-89
2023/04/20 05:58:02;;;;;;;8.00;3.70;;;;;;;8.75;54.95;101794.97;5005128;28;20048;-89
2023/04/20 06:00:27;;;;;;;5.72;3.70;;;;;;;8.90;53.97;101788.56;5009706;28;21555;-90
2023/04/20 06:02:53;;;;;;;7.47;4.15;;;;;;;8.97;53.84;101782.28;5007382;28;20068;-90
2023/04/20 06:05:19;;;;;;;6.05;3.88;;;;;;;9.00;54.23;101792.78;5023301;28;20484;-89
2023/04/20 06:07:45;;;;;;;7.20;4.13;;;;;;;9.08;54.75;101790.88;5025053;28;20053;-90
2023/04/20 06:10:10;;;;;;;5.63;4.15;;;;;;;9.19;54.55;101786.28;5021869;28;20103;-89
2023/04/20 06:12:35;;;;;;;8.85;4.40;;;;;;;9.26;53.90;101788.78;5024539;28;20025;-89
2023/04/20 06:15:01;;;;;;;7.22;5.20;;;;;;;9.28;55.35;101785.22;5006472;28;20243;-90
2023/04/20 06:17:26;;;;;;;7.15;3.97;;;;;;;9.26;53.17;101775.59;4999295;28;20476;-89
2023/04/20 06:19:52;;;;;;;5.82;4.30;;;;;;;9.30;53.90;101782.56;5025199;28;20087;-90
2023/04/20 06:22:18;;;;;;;5.90;4.45;;;;;;;9.39;53.45;101788.50;5022709;28;20026;-90
2023/04/20 06:24:43;;;;;;;7.68;4.07;;;;;;;9.29;54.25;101765.84;5006524;28;20117;-90
2023/04/20 06:27:09;;;;;;;10.80;4.57;;;;;;;9.48;54.39;101779.53;5027910;28;20124;-89
2023/04/20 06:29:34;;;;;;;8.90;4.97;;;;;;;9.61;53.90;101769.59;5024321;28;20083;-90
2023/04/20 06:32:00;;;;;;;7.22;4.70;;;;;;;9.66;53.65;101765.09;5017907;28;20504;-90
2023/04/20 06:34:25;;;;;;;10.85;4.57;;;;;;;9.65;53.56;101768.59;5000463;28;20370;-89
2023/04/20 06:36:50;;;;;;;10.10;4.45;;;;;;;9.71;53.38;101774.66;5019255;28;20029;-89
2023/04/20 06:39:16;;;;;;;8.52;4.45;;;;;;;9.70;53.60;101772.03;5008922;28;20482;-89
2023/04/20 06:41:42;;;;;;;9.05;4.18;;;;;;;9.68;53.14;101771.19;5025184;28;20033;-89
2023/04/20 06:44:08;;;;;;;9.02;4.75;;;;;;;9.83;53.51;101760.28;5025803;28;20026;-89
2023/04/20 06:46:34;;;;;;;7.18;4.65;;;;;;;10.01;52.57;101780.13;5010674;28;20175;-90
2023/04/20 06:48:59;;;;;;;10.90;5.15;;;;;;;10.03;52.54;101773.06;5007703;28;20115;-90
2023/04/20 06:51:26;;;;;;;7.50;4.38;;;;;;;9.94;53.33;101760.06;5006578;28;20028;-89
2023/04/20 06:53:51;;;;;;;5.97;4.20;;;;;;;9.87;52.33;101787.50;5012067;28;20503;-89
2023/04/20 06:56:16;;;;;;;6.97;4.43;;;;;;;9.69;52.63;101760.59;5010267;28;20029;-89
2023/04/20 06:58:42;;;;;;;8.95;4.57;;;;;;;9.69;52.65;101770.28;5026449;28;20025;-90
2023/04/20 07:01:07;;;;;;;15.98;5.18;;;;;;;9.64;53.69;101761.59;5009575;28;20392;-89
2023/04/20 07:03:32;;;;;;;9.48;4.80;;;;;;;9.65;53.65;101766.88;5010077;28;20246;-90
2023/04/20 07:05:58;;;;;;;6.93;3.85;;;;;;;9.59;52.75;101772.25;5008290;28;20029;-90
2023/04/20 07:08:23;;;;;;;10.10;4.50;;;;;;;9.56;53.04;101782.91;5024117;28;20052;-90
2023/04/20 07:10:48;;;;;;;5.40;3.67;;;;;;;9.42;53.35;101763.84;5029058;28;20100;-90
2023/04/20 07:13:13;;;;;;;6.85;4.00;;;;;;;9.48;53.15;101770.75;5012017;28;20029;-89
2023/04/20 07:15:39;;;;;;;6.45;4.05;;;;;;;9.40;53.24;101776.19;5023576;28;20069;-91
2023/04/20 07:18:05;;;;;;;8.50;4.05;;;;;;;9.41;54.09;101778.78;5010052;28;20399;-90
2023/04/20 07:20:30;;;;;;;4.60;3.55;;;;;;;9.39;53.40;101777.09;5026158;28;20117;-90
2023/04/20 07:22:55;;;;;;;8.05;4.63;;;;;;;9.38;54.48;101763.03;5007762;28;20659;-91
2023/04/20 07:25:22;;;;;;;6.00;4.35;;;;;;;9.45;54.49;101776.94;5012709;28;20079;-90
2023/04/20 07:27:47;;;;;;;5.70;4.05;;;;;;;9.45;54.43;101767.25;5005772;28;20493;-90
2023/04/20 07:30:12;;;;;;;6.93;4.10;;;;;;;9.49;54.32;101770.72;5011241;28;20057;-90
2023/04/20 07:32:39;;;;;;;6.63;4.15;;;;;;;9.49;54.09;101764.56;5025467;28;20200;-90
2023/04/20 07:35:05;;;;;;;6.57;4.32;;;;;;;9.52;54.53;101761.88;5024943;28;20052;-91
2023/04/20 07:37:30;;;;;;;7.18;4.03;;;;;;;9.60;54.65;101760.78;5003708;28;20025;-90
2023/04/20 07:39:56;;;;;;;8.35;4.47;;;;;;;9.77;54.15;101759.56;5024203;28;20033;-90
2023/04/20 07:42:21;;;;;;;5.53;4.00;;;;;;;10.00;53.34;101759.91;5012674;28;20041;-91
2023/04/20 07:44:47;;;;;;;9.75;4.22;;;;;;;10.41;52.60;101745.75;5003281;28;20116;-90
2023/04/20 07:47:12;;;;;;;6.20;4.40;;;;;;;11.01;51.87;101748.63;5007454;28;20037;-91
2023/04/20 07:49:39;;;;;;;10.90;4.20;;;;;;;11.14;51.98;101758.78;5012981;28;20122;-91
2023/04/20 07:52:05;;;;;;;6.18;3.83;;;;;;;11.05;50.36;101750.25;5029147;28;20029;-92
2023/04/20 07:54:31;;;;;;;6.45;3.90;;;;;;;11.23;50.37;101766.47;5029727;28;20025;-91
2023/04/20 07:56:57;;;;;;;6.82;4.22;;;;;;;11.45;50.40;101758.78;5028773;28;20028;-90
2023/04/20 07:59:22;;;;;;;5.38;3.95;;;;;;;11.56;50.04;101766.41;5021637;28;20029;-92
2023/04/20 08:01:47;;;;;;;6.85;4.38;;;;;;;11.52;48.84;101763.91;5008615;28;20022;-91
2023/04/20 08:04:13;;;;;;;6.32;4.35;;;;;;;11.27;49.44;101746.09;5008450;28;20022;-91
2023/04/20 08:06:38;;;;;;;5.43;4.15;;;;;;;11.35;50.32;101752.03;5021525;28;20098;-91
2023/04/20 08:09:03;;;;;;;10.30;4.30;;;;;;;11.31;50.18;101750.38;5025359;28;20041;-92
2023/04/20 08:11:29;;;;;;;6.45;3.65;;;;;;;11.36;50.86;101758.19;5002819;28;20584;-91
2023/04/20 08:13:54;;;;;;;4.25;3.80;;;;;;;11.51;49.82;101757.75;5027607;28;20489;-92
2023/04/20 08:16:19;;;;;;;4.57;4.05;;;;;;;11.40;50.03;101750.13;4992516;28;20068;-92
2023/04/20 08:18:45;;;;;;;8.80;3.88;;;;;;;11.20;50.81;101740.13;4994063;28;20029;-91
2023/04/20 08:21:10;;;;;;;6.22;4.15;;;;;;;11.18;50.84;101747.22;5007145;28;20306;-91
2023/04/20 08:23:35;;;;;;;5.68;4.32;;;;;;;11.12;51.27;101742.09;5002295;28;20084;-91
2023/04/20 08:26:03;;;;;;;6.40;3.55;;;;;;;11.23;51.41;101740.00;4982213;28;21241;-92
2023/04/20 08:28:28;;;;;;;5.57;4.30;;;;;;;11.29;51.96;101735.47;5003767;28;20022;-92
2023/04/20 08:30:53;;;;;;;5.53;3.83;;;;;;;11.37;50.72;101734.31;4998472;28;20377;-92
2023/04/20 08:33:18;;;;;;;4.05;3.65;;;;;;;11.70;50.62;101735.13;4985466;28;20031;-91
2023/04/20 08:35:44;;;;;;;5.85;3.53;;;;;;;12.27;50.20;101719.22;4997724;28;20477;-91
2023/04/20 08:38:10;;;;;;;7.68;4.03;;;;;;;13.18;47.53;101725.75;5007281;28;20381;-91
2023/04/20 08:40:36;;;;;;;3.90;3.15;;;;;;;13.34;46.72;101728.75;4990884;28;20037;-92
2023/04/20 08:43:02;;;;;;;3.88;3.47;;;;;;;13.20;46.93;101708.84;4998436;28;20096;-92
2023/04/20 08:45:29;;;;;;;4.10;3.45;;;;;;;13.10;48.03;101726.00;4985485;28;20492;-92
2023/04/20 08:47:55;;;;;;;6.03;3.88;;;;;;;13.02;47.61;101726.31;4987543;28;20865;-92
2023/04/20 08:50:21;;;;;;;5.35;3.42;;;;;;;13.10;47.23;101723.34;5009879;28;20014;-92
2023/04/20 08:52:46;;;;;;;6.45;3.53;;;;;;;13.00;47.19;101720.19;4999102;28;20236;-92
2023/04/20 08:55:16;;;;;;;4.03;3.60;;;;;;;12.95;47.49;101715.97;5003966;28;20026;-91
2023/04/20 08:57:41;;;;;;;7.50;3.55;;;;;;;13.01;46.44;101713.09;5004925;28;20030;-92
2023/04/20 09:00:09;;;;;;;4.43;3.75;;;;;;;12.56;47.43;101711.16;5006822;28;20109;-94
2023/04/20 09:02:35;;;;;;;6.15;3.95;;;;;;;12.39;49.03;101714.38;4987431;28;20034;-94
2023/04/20 09:05:04;;;;;;;3.95;3.10;;;;;;;12.33;47.93;101719.88;4989952;28;20492;-93
2023/04/20 09:07:29;;;;;;;7.40;3.30;;;;;;;12.38;47.88;101722.38;5000114;28;20049;-92
2023/04/20 09:09:59;;;;;;;5.70;3.40;;;;;;;12.42;49.08;101716.06;4999772;28;20030;-92
2023/04/20 09:12:25;;;;;;;4.30;3.20;;;;;;;12.48;47.89;101715.84;5003981;28;20037;-93
2023/04/20 09:14:51;;;;;;;4.18;3.33;;;;;;;12.32;47.66;101709.34;5002307;28;20033;-92
2023/04/20 09:17:29;;;;;;;4.47;3.20;;;;;;;12.24;48.83;101726.34;5008261;28;20554;-93
2023/04/20 09:19:55;;;;;;;5.25;3.88;;;;;;;12.13;49.47;101712.59;5026322;28;20021;-91
2023/04/20 09:22:37;;;;;;;5.30;3.45;;;;;;;12.39;48.79;101726.75;5006335;28;20036;-92
2023/04/20 09:25:18;;;;;;;5.07;3.75;;;;;;;12.77;47.57;101720.13;5012339;28;20049;-92
2023/04/20 09:27:58;;;;;;;3.83;3.33;;;;;;;12.97;47.29;101708.81;5016289;28;20099;-92
2023/04/20 09:30:23;;;;;;;3.92;3.47;;;;;;;12.78;47.57;101719.22;5014887;28;20057;-93
2023/04/20 09:33:00;;;;;;;3.85;3.30;;;;;;;12.61;47.34;101724.25;5014839;28;20068;-92
2023/04/20 09:35:25;;;;;;;5.93;3.70;;;;;;;12.39;47.55;101717.00;5008467;28;20098;-92
2023/04/20 09:37:51;;;;;;;4.97;3.13;;;;;;;12.32;48.62;101710.19;5010724;28;20465;-92
2023/04/20 09:40:18;;;;;;;6.90;3.78;;;;;;;12.33;48.46;101703.97;5024304;28;20041;-93
2023/04/20 09:42:44;;;;;;;5.40;3.47;;;;;;;12.48;48.68;101721.13;5007460;28;20076;-92
2023/04/20 09:45:13;;;;;;;5.53;3.72;;;;;;;12.36;47.73;101718.94;5001863;28;20026;-92
2023/04/20 09:47:41;;;;;;;3.67;3.33;;;;;;;12.31;48.41;101710.22;5011465;28;20021;-93
2023/04/20 09:50:09;;;;;;;8.27;4.07;;;;;;;12.25;48.44;101708.66;5028096;28;20488;-92
2023/04/20 09:52:36;;;;;;;7.53;3.67;;;;;;;12.41;48.44;101715.19;5017077;28;20030;-92
2023/04/20 09:55:04;;;;;;;4.93;3.78;;;;;;;12.43;46.00;101696.56;5025538;28;20079;-92
2023/04/20 09:57:30;;;;;;;3.95;3.55;;;;;;;12.89;48.39;101700.25;5021791;28;20072;-92
2023/04/20 09:59:57;;;;;;;3.30;2.95;;;;;;;13.20;46.64;101690.25;4991818;28;20057;-92
2023/04/20 10:02:22;;;;;;;5.50;3.88;;;;;;;13.40;46.43;101678.03;5011061;28;20466;-92
2023/04/20 10:04:55;;;;;;;3.60;3.30;;;;;;;13.60;45.90;101679.91;5005762;28;20034;-92
2023/04/20 10:07:28;;;;;;;4.55;3.42;;;;;;;13.57;44.95;101685.34;5017237;28;20048;-92
2023/04/20 10:10:12;;;;;;;4.10;3.33;;;;;;;13.53;45.27;101676.66;5013677;28;20056;-93
2023/04/20 10:12:47;;;;;;;6.30;3.65;;;;;;;13.40;45.63;101686.00;5013111;28;20542;-93
2023/04/20 10:15:13;;;;;;;4.68;4.20;;;;;;;13.37;46.10;101679.00;5002490;28;20057;-93
2023/04/20 10:17:38;;;;;;;4.15;3.75;;;;;;;13.16;46.69;101678.00;5024954;28;20541;-93
2023/04/20 10:20:16;;;;;;;5.85;4.00;;;;;;;12.94;47.53;101679.72;5012895;28;20071;-92
2023/04/20 10:22:41;;;;;;;4.15;3.65;;;;;;;12.78;47.97;101687.38;5018390;28;20544;-93
2023/04/20 10:25:16;;;;;;;7.85;4.15;;;;;;;12.62;48.74;101676.44;5018967;28;20022;-93
2023/04/20 10:27:51;;;;;;;6.07;3.83;;;;;;;12.77;48.12;101690.94;5011984;28;20025;-93
2023/04/20 10:30:18;;;;;;;5.00;3.85;;;;;;;12.78;48.43;101684.75;5009283;28;20021;-92
2023/04/20 10:32:43;;;;;;;8.20;3.58;;;;;;;12.99;46.43;101683.94;5011507;28;20088;-92
2023/04/20 10:35:10;;;;;;;8.93;4.35;;;;;;;13.28;46.56;101676.72;5024555;28;20037;-92
2023/04/20 10:37:46;;;;;;;5.82;3.90;;;;;;;13.36;46.19;101653.38;5003117;28;20069;-92
2023/04/20 10:40:12;;;;;;;6.03;4.10;;;;;;;13.65;46.46;101662.84;5008618;28;20029;-92
2023/04/20 10:42:42;;;;;;;4.95;4.07;;;;;;;13.98;46.14;101651.78;5029842;28;20021;-93
2023/04/20 10:45:08;;;;;;;3.92;3.40;;;;;;;14.33;44.38;101663.63;5009836;28;20033;-92
2023/04/20 10:47:36;;;;;;;5.80;3.55;;;;;;;14.93;44.39;101631.75;5024480;28;20509;-92
2023/04/20 10:50:09;;;;;;;5.13;3.80;;;;;;;15.60;42.80;101641.88;5009904;28;20036;-92
2023/04/20 10:52:36;;;;;;;5.53;3.72;;;;;;;15.86;41.95;101639.78;5025254;28;20025;-93
2023/04/20 10:55:04;;;;;;;4.43;4.03;;;;;;;15.66;41.19;101630.94;5022191;28;20116;-92
2023/04/20 10:57:29;;;;;;;4.28;3.72;;;;;;;14.94;43.34;101642.31;5010886;28;20481;-93
2023/04/20 10:59:55;;;;;;;5.40;4.90;;;;;;;14.42;43.30;101647.25;5006500;28;20033;-92
2023/04/20 11:02:20;;;;;;;4.82;4.32;;;;;;;13.88;44.99;101643.31;5029597;28;20191;-92
2023/04/20 11:04:46;;;;;;;6.20;4.57;;;;;;;13.50;45.30;101644.88;5011839;28;20052;-92
2023/04/20 11:07:14;;;;;;;6.20;4.40;;;;;;;13.50;45.74;101636.91;5028556;28;20505;-92
2023/04/20 11:09:41;;;;;;;6.22;4.20;;;;;;;13.44;46.54;101634.50;5012856;28;20563;-92
2023/04/20 11:12:10;;;;;;;4.38;3.97;;;;;;;13.45;47.13;101641.53;5024358;28;20031;-92
2023/04/20 11:14:37;;;;;;;5.82;4.40;;;;;;;13.48;47.18;101641.44;5006568;28;20058;-92
2023/04/20 11:17:03;;;;;;;6.80;4.60;;;;;;;13.36;47.10;101648.06;5009965;28;20048;-92
2023/04/20 11:19:35;;;;;;;6.25;4.53;;;;;;;13.55;46.93;101634.06;5006380;28;20030;-92
2023/04/20 11:22:02;;;;;;;5.28;4.50;;;;;;;14.08;45.79;101637.19;5019643;28;20029;-92
2023/04/20 11:24:30;;;;;;;6.40;4.68;;;;;;;14.15;44.71;101622.72;5011552;28;20028;-93
2023/04/20 11:26:56;;;;;;;6.70;4.43;;;;;;;13.95;46.40;101635.97;5009092;28;20040;-93